createdAt,value
2023-03-11T00:00:17.265Z,11.09
2023-03-11T00:02:47.040Z,11.07
2023-03-11T00:05:17.536Z,11.11
2023-03-11T00:07:44.333Z,11.39
2023-03-11T00:10:15.838Z,11.52
2023-03-11T00:12:42.517Z,11.15
2023-03-11T00:15:09.986Z,11.40
2023-03-11T00:17:36.614Z,11.41
2023-03-11T00:20:05.437Z,11.36
2023-03-11T00:22:33.131Z,11.24
2023-03-11T00:24:59.808Z,11.59
2023-03-11T00:27:26.716Z,11.54
2023-03-11T00:29:53.524Z,11.43
2023-03-11T00:32:20.252Z,11.71
2023-03-11T00:34:46.953Z,11.73
2023-03-11T00:37:13.923Z,11.74
2023-03-11T00:39:40.538Z,11.50
2023-03-11T00:42:07.867Z,11.72
2023-03-11T00:44:34.442Z,11.36
2023-03-11T00:47:01.322Z,11.55
2023-03-11T00:49:28.082Z,11.65
2023-03-11T00:51:54.873Z,11.67
2023-03-11T00:54:21.779Z,11.28
2023-03-11T00:56:48.467Z,11.53
2023-03-11T00:59:15.042Z,11.98
2023-03-11T01:01:41.990Z,12.02
2023-03-11T01:04:08.640Z,11.74
2023-03-11T01:06:44.895Z,11.93
2023-03-11T01:09:12.021Z,12.08
2023-03-11T01:11:38.938Z,12.05
2023-03-11T01:14:05.510Z,11.73
2023-03-11T01:16:32.119Z,11.75
2023-03-11T01:18:58.847Z,11.72
2023-03-11T01:21:25.999Z,11.92
2023-03-11T01:23:53.016Z,11.84
2023-03-11T01:26:26.031Z,11.34
2023-03-11T01:28:55.875Z,11.34
2023-03-11T01:31:22.793Z,11.19
2023-03-11T01:33:49.640Z,11.29
2023-03-11T01:36:16.555Z,11.15
2023-03-11T01:38:43.775Z,11.27
2023-03-11T01:41:12.252Z,11.10
2023-03-11T01:43:43.485Z,11.12
2023-03-11T01:46:56.750Z,11.00
2023-03-11T01:49:28.927Z,11.11
2023-03-11T01:52:00.389Z,11.44
2023-03-11T01:54:29.922Z,11.14
2023-03-11T01:56:58.067Z,11.26
2023-03-11T01:59:39.477Z,11.29
2023-03-11T02:02:38.173Z,11.10
2023-03-11T02:05:05.701Z,11.07
2023-03-11T02:07:32.916Z,10.97
2023-03-11T02:10:02.156Z,11.02
2023-03-11T02:12:34.193Z,10.94
2023-03-11T02:15:02.025Z,10.97
2023-03-11T02:17:28.890Z,10.93
2023-03-11T02:20:01.560Z,11.04
2023-03-11T02:22:33.323Z,10.99
2023-03-11T02:25:21.179Z,10.80
2023-03-11T02:27:52.508Z,10.84
2023-03-11T02:30:23.835Z,10.85
2023-03-11T02:32:51.380Z,10.75
2023-03-11T02:35:19.233Z,10.66
2023-03-11T02:37:51.009Z,10.53
2023-03-11T02:40:21.875Z,10.66
2023-03-11T02:42:51.966Z,10.62
2023-03-11T02:45:22.292Z,10.17
2023-03-11T02:47:50.052Z,10.42
2023-03-11T02:50:18.660Z,10.53
2023-03-11T02:52:48.867Z,10.60
2023-03-11T02:55:18.045Z,10.66
2023-03-11T02:57:45.140Z,10.65
2023-03-11T03:00:16.765Z,10.58
2023-03-11T03:02:52.356Z,10.65
2023-03-11T03:05:23.714Z,10.55
2023-03-11T03:07:51.448Z,10.61
2023-03-11T03:10:20.378Z,10.45
2023-03-11T03:12:47.682Z,10.33
2023-03-11T03:15:16.039Z,10.27
2023-03-11T03:17:46.075Z,10.06
2023-03-11T03:20:14.245Z,9.72
2023-03-11T03:22:45.555Z,9.88
2023-03-11T03:25:15.538Z,9.69
2023-03-11T03:27:42.535Z,9.89
2023-03-11T03:30:10.772Z,9.84
2023-03-11T03:32:38.535Z,9.80
2023-03-11T03:35:09.363Z,9.75
2023-03-11T03:38:02.482Z,9.77
2023-03-11T03:40:29.559Z,9.84
2023-03-11T03:42:58.780Z,9.53
2023-03-11T03:45:26.440Z,9.70
2023-03-11T03:47:53.961Z,9.74
2023-03-11T03:50:23.017Z,9.63
2023-03-11T03:52:52.319Z,9.76
2023-03-11T03:55:20.717Z,9.69
2023-03-11T03:57:47.635Z,9.66
2023-03-11T04:00:15.842Z,9.71
2023-03-11T04:02:44.892Z,9.45
2023-03-11T04:05:21.574Z,9.52
2023-03-11T04:07:48.227Z,9.62
2023-03-11T04:10:15.287Z,9.63
2023-03-11T04:12:43.242Z,9.60
2023-03-11T04:15:10.682Z,9.63
2023-03-11T04:17:38.976Z,9.57
2023-03-11T04:20:10.635Z,9.58
2023-03-11T04:22:37.646Z,9.58
2023-03-11T04:25:05.723Z,9.70
2023-03-11T04:27:32.929Z,9.63
2023-03-11T04:30:01.316Z,9.66
2023-03-11T04:32:29.385Z,9.58
2023-03-11T04:34:56.184Z,9.56
2023-03-11T04:37:27.118Z,9.55
2023-03-11T04:39:54.121Z,9.50
2023-03-11T04:42:21.334Z,9.53
2023-03-11T04:44:48.855Z,9.15
2023-03-11T04:47:15.520Z,9.42
2023-03-11T04:49:42.217Z,9.40
2023-03-11T04:52:10.759Z,9.41
2023-03-11T04:54:38.192Z,9.54
2023-03-11T04:57:06.044Z,9.49
2023-03-11T04:59:33.086Z,9.33
2023-03-11T05:02:00.206Z,9.24
2023-03-11T05:04:26.921Z,9.30
2023-03-11T05:06:53.609Z,9.23
2023-03-11T05:09:23.118Z,9.22
2023-03-11T05:11:49.858Z,9.19
2023-03-11T05:14:18.776Z,9.10
2023-03-11T05:16:45.927Z,9.21
2023-03-11T05:19:31.195Z,9.32
2023-03-11T05:22:01.588Z,9.27
2023-03-11T05:24:29.936Z,9.33
2023-03-11T05:26:58.054Z,9.38
2023-03-11T05:29:25.744Z,9.38
2023-03-11T05:31:53.844Z,9.24
2023-03-11T05:34:21.178Z,9.18
2023-03-11T05:36:48.172Z,9.16
2023-03-11T05:39:15.307Z,9.12
2023-03-11T05:41:42.552Z,9.12
2023-03-11T05:44:09.261Z,9.08
2023-03-11T05:46:35.896Z,9.11
2023-03-11T05:49:04.540Z,9.15
2023-03-11T05:51:31.505Z,9.08
2023-03-11T05:53:58.767Z,9.03
2023-03-11T05:56:34.141Z,9.02
2023-03-11T05:59:00.899Z,8.90
2023-03-11T06:01:31.195Z,8.95
2023-03-11T06:03:57.999Z,8.98
2023-03-11T06:06:24.920Z,9.03
2023-03-11T06:08:52.340Z,9.17
2023-03-11T06:11:21.648Z,9.08
2023-03-11T06:13:48.467Z,8.98
2023-03-11T06:16:15.165Z,9.02
2023-03-11T06:18:42.093Z,8.93
2023-03-11T06:21:17.026Z,8.87
2023-03-11T06:23:43.992Z,8.83
2023-03-11T06:26:14.524Z,8.76
2023-03-11T06:28:45.503Z,8.73
2023-03-11T06:31:17.429Z,8.67
2023-03-11T06:33:44.267Z,8.47
2023-03-11T06:36:13.988Z,8.33
2023-03-11T06:38:40.932Z,8.54
2023-03-11T06:41:07.908Z,8.60
2023-03-11T06:43:36.265Z,9.16
2023-03-11T06:46:17.106Z,9.18
2023-03-11T06:48:46.240Z,9.34
2023-03-11T06:51:15.119Z,9.33
2023-03-11T06:53:43.429Z,9.30
2023-03-11T06:56:13.101Z,9.25
2023-03-11T06:58:48.101Z,9.43
2023-03-11T07:01:21.599Z,9.41
2023-03-11T07:03:50.367Z,9.42
2023-03-11T07:06:22.005Z,9.44
2023-03-11T07:08:51.363Z,9.63
2023-03-11T07:11:25.872Z,9.73
2023-03-11T07:13:57.068Z,9.86
2023-03-11T07:16:27.279Z,9.80
2023-03-11T07:19:02.820Z,9.75
2023-03-11T07:21:31.707Z,9.53
2023-03-11T07:24:01.012Z,9.75
2023-03-11T07:26:29.167Z,10.04
2023-03-11T07:28:56.527Z,10.22
2023-03-11T07:31:26.333Z,10.39
2023-03-11T07:33:53.989Z,10.41
2023-03-11T07:36:23.083Z,10.42
2023-03-11T07:38:55.323Z,10.49
2023-03-11T07:41:21.961Z,10.61
2023-03-11T07:43:48.714Z,10.77
2023-03-11T07:46:19.943Z,10.80
2023-03-11T07:48:48.889Z,10.90
2023-03-11T07:51:17.120Z,11.12
2023-03-11T07:53:44.607Z,11.12
2023-03-11T07:56:14.042Z,11.34
2023-03-11T07:58:41.344Z,11.50
2023-03-11T08:01:10.721Z,11.53
2023-03-11T08:03:38.947Z,11.43
2023-03-11T08:06:13.110Z,11.53
2023-03-11T08:08:40.048Z,11.78
2023-03-11T08:11:07.147Z,11.94
2023-03-11T08:13:34.402Z,12.34
2023-03-11T08:16:05.100Z,12.40
2023-03-11T08:18:33.124Z,12.69
2023-03-11T08:20:59.865Z,12.82
2023-03-11T08:23:26.548Z,12.75
2023-03-11T08:25:53.100Z,13.03
2023-03-11T08:28:19.725Z,13.24
2023-03-11T08:30:46.424Z,13.42
2023-03-11T08:33:13.078Z,13.33
2023-03-11T08:35:39.761Z,13.19
2023-03-11T08:38:06.559Z,13.09
2023-03-11T08:40:33.287Z,13.15
2023-03-11T08:42:59.850Z,13.34
2023-03-11T08:45:26.564Z,13.11
2023-03-11T08:47:53.249Z,12.97
2023-03-11T08:50:20.490Z,13.04
2023-03-11T08:52:47.548Z,12.87
2023-03-11T08:55:17.623Z,13.15
2023-03-11T08:57:44.979Z,13.32
2023-03-11T09:00:13.677Z,13.38
2023-03-11T09:02:41.671Z,13.14
2023-03-11T09:05:08.862Z,13.03
2023-03-11T09:07:35.711Z,13.02
2023-03-11T09:10:02.299Z,12.87
2023-03-11T09:12:29.152Z,12.16
2023-03-11T09:14:56.277Z,12.47
2023-03-11T09:17:23.422Z,13.04
2023-03-11T09:19:50.417Z,13.29
2023-03-11T09:22:17.112Z,13.04
2023-03-11T09:24:43.634Z,13.83
2023-03-11T09:27:11.017Z,13.29
2023-03-11T09:29:37.946Z,12.98
2023-03-11T09:32:05.070Z,13.74
2023-03-11T09:34:31.824Z,14.18
2023-03-11T09:36:58.596Z,14.72
2023-03-11T09:39:25.172Z,14.59
2023-03-11T09:41:59.190Z,15.14
2023-03-11T09:44:26.029Z,14.40
2023-03-11T09:47:07.997Z,13.75
2023-03-11T09:49:56.538Z,14.20
2023-03-11T09:52:32.839Z,14.90
2023-03-11T09:55:03.345Z,15.26
2023-03-11T09:57:34.798Z,14.25
2023-03-11T10:00:04.756Z,14.42
2023-03-11T10:02:40.107Z,13.78
2023-03-11T10:05:15.642Z,13.57
2023-03-11T10:07:49.796Z,13.81
2023-03-11T10:10:17.962Z,14.29
2023-03-11T10:13:32.324Z,13.72
2023-03-11T10:16:20.811Z,14.39
2023-03-11T10:18:47.818Z,14.63
2023-03-11T10:21:21.126Z,13.40
2023-03-11T10:24:19.634Z,13.48
2023-03-11T10:26:52.323Z,14.45
2023-03-11T10:29:22.021Z,14.30
2023-03-11T10:32:05.348Z,14.44
2023-03-11T10:34:41.868Z,14.83
2023-03-11T10:37:23.386Z,15.36
2023-03-11T10:39:50.327Z,15.71
2023-03-11T10:42:22.418Z,16.12
2023-03-11T10:44:51.111Z,14.87
2023-03-11T10:47:23.072Z,15.08
2023-03-11T10:49:50.728Z,14.87
2023-03-11T10:52:17.324Z,15.38
2023-03-11T10:54:47.929Z,14.78
2023-03-11T10:57:25.482Z,14.63
2023-03-11T11:00:17.290Z,15.45
2023-03-11T11:03:02.070Z,15.81
2023-03-11T11:05:34.142Z,16.08
2023-03-11T11:08:19.330Z,16.85
2023-03-11T11:10:58.064Z,17.20
2023-03-11T11:13:26.856Z,16.47
2023-03-11T11:16:02.570Z,16.20
2023-03-11T11:18:33.705Z,17.35
2023-03-11T11:21:09.714Z,17.34
2023-03-11T11:23:39.235Z,17.00
2023-03-11T11:26:21.993Z,16.88
2023-03-11T11:29:18.226Z,16.46
2023-03-11T11:31:46.521Z,17.43
2023-03-11T11:34:32.017Z,17.67
2023-03-11T11:37:01.248Z,16.96
2023-03-11T11:39:32.225Z,17.18
2023-03-11T11:42:01.515Z,18.12
2023-03-11T11:44:34.958Z,18.26
2023-03-11T11:47:15.720Z,17.94
2023-03-11T11:49:52.135Z,16.93
2023-03-11T11:52:25.019Z,17.26
2023-03-11T11:55:02.887Z,17.19
2023-03-11T11:57:29.909Z,17.18
2023-03-11T11:59:57.709Z,16.71
2023-03-11T12:02:37.126Z,16.72
2023-03-11T12:05:16.705Z,15.37
2023-03-11T12:08:17.462Z,15.86
2023-03-11T12:10:58.019Z,16.39
2023-03-11T12:13:42.897Z,16.83
2023-03-11T12:16:24.077Z,15.96
2023-03-11T12:19:25.405Z,15.86
2023-03-11T12:22:02.370Z,15.72
2023-03-11T12:24:41.040Z,15.44
2023-03-11T12:27:21.872Z,16.00
2023-03-11T12:29:55.984Z,16.43
2023-03-11T12:32:30.077Z,16.95
2023-03-11T12:35:04.683Z,16.42
2023-03-11T12:37:31.794Z,16.38
2023-03-11T12:39:58.611Z,16.56
2023-03-11T12:42:39.686Z,16.11
2023-03-11T12:45:48.461Z,16.55
2023-03-11T12:48:27.245Z,16.14
2023-03-11T12:50:57.469Z,16.40
2023-03-11T12:53:49.262Z,16.31
2023-03-11T12:56:29.015Z,16.30
2023-03-11T12:59:34.682Z,17.04
2023-03-11T13:02:10.435Z,17.51
2023-03-11T13:04:49.625Z,17.03
2023-03-11T13:07:34.330Z,17.57
2023-03-11T13:10:12.119Z,16.44
2023-03-11T13:12:50.249Z,17.19
2023-03-11T13:15:19.965Z,16.77
2023-03-11T13:18:14.729Z,16.94
2023-03-11T13:20:49.163Z,17.35
2023-03-11T13:23:26.024Z,17.83
2023-03-11T13:26:09.764Z,17.97
2023-03-11T13:29:13.443Z,16.95
2023-03-11T13:31:58.326Z,17.20
2023-03-11T13:34:50.754Z,17.39
2023-03-11T13:37:43.609Z,16.90
2023-03-11T13:40:44.266Z,17.18
2023-03-11T13:43:23.814Z,17.65
2023-03-11T13:46:12.522Z,18.08
2023-03-11T13:48:45.173Z,17.98
2023-03-11T13:51:25.633Z,17.64
2023-03-11T13:53:59.709Z,16.59
2023-03-11T13:56:29.347Z,17.84
2023-03-11T13:59:26.803Z,17.88
2023-03-11T14:01:56.697Z,18.58
2023-03-11T14:04:32.675Z,18.44
2023-03-11T14:07:00.472Z,18.42
2023-03-11T14:09:28.848Z,17.84
2023-03-11T14:12:04.829Z,17.88
2023-03-11T14:14:43.956Z,17.47
2023-03-11T14:17:16.587Z,17.77
2023-03-11T14:19:44.107Z,17.35
2023-03-11T14:22:11.127Z,17.40
2023-03-11T14:24:38.607Z,17.27
2023-03-11T14:27:09.363Z,17.90
2023-03-11T14:29:38.843Z,17.74
2023-03-11T14:32:28.857Z,18.18
2023-03-11T14:34:56.757Z,18.36
2023-03-11T14:37:37.118Z,18.58
2023-03-11T14:40:22.004Z,18.63
2023-03-11T14:42:53.722Z,19.06
2023-03-11T14:45:25.149Z,18.73
2023-03-11T14:48:15.345Z,17.99
2023-03-11T14:50:44.456Z,18.08
2023-03-11T14:53:33.256Z,17.85
2023-03-11T14:56:07.115Z,18.38
2023-03-11T14:59:07.183Z,18.61
2023-03-11T15:01:42.021Z,17.92
2023-03-11T15:04:22.895Z,18.20
2023-03-11T15:06:50.525Z,17.52
2023-03-11T15:09:21.038Z,18.24
2023-03-11T15:11:50.974Z,18.22
2023-03-11T15:14:22.372Z,18.45
2023-03-11T15:16:49.904Z,18.10
2023-03-11T15:19:29.178Z,18.37
2023-03-11T15:21:59.675Z,18.68
2023-03-11T15:24:29.599Z,18.80
2023-03-11T15:27:08.601Z,18.69
2023-03-11T15:29:36.320Z,18.58
2023-03-11T15:32:43.084Z,17.51
2023-03-11T15:35:12.299Z,18.11
2023-03-11T15:37:41.126Z,17.14
2023-03-11T15:40:12.922Z,16.95
2023-03-11T15:42:39.742Z,16.62
2023-03-11T15:45:20.568Z,16.91
2023-03-11T15:47:48.756Z,17.15
2023-03-11T15:50:37.283Z,17.94
2023-03-11T15:53:09.931Z,18.04
2023-03-11T15:55:37.177Z,17.96
2023-03-11T15:58:07.962Z,17.85
2023-03-11T16:00:35.458Z,17.18
2023-03-11T16:03:03.026Z,18.10
2023-03-11T16:05:30.333Z,17.65
2023-03-11T16:07:57.052Z,17.20
2023-03-11T16:10:25.754Z,16.33
2023-03-11T16:12:52.488Z,17.02
2023-03-11T16:15:22.184Z,16.24
2023-03-11T16:17:50.386Z,17.07
2023-03-11T16:20:18.949Z,17.21
2023-03-11T16:22:46.732Z,16.52
2023-03-11T16:25:42.347Z,16.90
2023-03-11T16:28:12.866Z,17.34
2023-03-11T16:30:39.579Z,17.58
2023-03-11T16:33:06.379Z,17.33
2023-03-11T16:35:33.396Z,17.29
2023-03-11T16:38:00.385Z,17.34
2023-03-11T16:40:28.961Z,17.15
2023-03-11T16:43:10.932Z,16.89
2023-03-11T16:45:37.658Z,17.13
2023-03-11T16:48:06.665Z,16.66
2023-03-11T16:50:34.458Z,16.40
2023-03-11T16:53:04.996Z,17.03
2023-03-11T16:55:31.834Z,16.38
2023-03-11T16:57:58.656Z,16.31
2023-03-11T17:00:29.123Z,16.75
2023-03-11T17:02:55.947Z,16.68
2023-03-11T17:05:22.924Z,16.65
2023-03-11T17:07:54.968Z,16.88
2023-03-11T17:10:23.851Z,16.29
2023-03-11T17:12:50.513Z,16.62
2023-03-11T17:15:17.252Z,16.68
2023-03-11T17:17:43.815Z,16.32
2023-03-11T17:20:11.218Z,16.55
2023-03-11T17:22:38.008Z,16.53
2023-03-11T17:25:05.705Z,16.51
2023-03-11T17:27:32.775Z,16.14
2023-03-11T17:30:01.167Z,16.39
2023-03-11T17:32:29.287Z,16.07
2023-03-11T17:34:56.253Z,15.88
2023-03-11T17:37:23.185Z,15.89
2023-03-11T17:39:50.235Z,15.41
2023-03-11T17:42:17.088Z,15.66
2023-03-11T17:44:51.330Z,15.73
2023-03-11T17:47:20.481Z,15.58
2023-03-11T17:49:48.679Z,15.47
2023-03-11T17:52:15.448Z,15.52
2023-03-11T17:54:44.069Z,15.32
2023-03-11T17:57:13.197Z,15.29
2023-03-11T17:59:40.338Z,15.61
2023-03-11T18:02:12.374Z,15.75
2023-03-11T18:04:44.957Z,15.71
2023-03-11T18:07:12.904Z,15.72
2023-03-11T18:09:39.681Z,15.74
2023-03-11T18:12:09.492Z,15.69
2023-03-11T18:14:36.845Z,15.76
2023-03-11T18:17:04.866Z,15.76
2023-03-11T18:19:31.505Z,15.85
2023-03-11T18:21:58.212Z,15.72
2023-03-11T18:24:24.997Z,15.74
2023-03-11T18:26:51.656Z,15.73
2023-03-11T18:29:19.046Z,15.82
2023-03-11T18:31:48.881Z,15.68
2023-03-11T18:34:15.639Z,15.61
2023-03-11T18:36:42.512Z,15.49
2023-03-11T18:39:14.177Z,15.41
2023-03-11T18:41:42.381Z,15.30
2023-03-11T18:44:09.392Z,15.13
2023-03-11T18:46:36.580Z,15.09
2023-03-11T18:49:04.020Z,14.95
2023-03-11T18:51:32.484Z,14.89
2023-03-11T18:54:01.215Z,14.87
2023-03-11T18:56:30.859Z,14.80
2023-03-11T18:59:02.729Z,14.92
2023-03-11T19:01:30.955Z,14.97
2023-03-11T19:04:00.745Z,15.06
2023-03-11T19:06:28.995Z,14.91
2023-03-11T19:08:57.733Z,14.88
2023-03-11T19:11:25.034Z,14.19
2023-03-11T19:13:52.186Z,14.39
2023-03-11T19:16:22.186Z,14.25
2023-03-11T19:18:50.512Z,14.14
2023-03-11T19:21:17.883Z,14.19
2023-03-11T19:23:45.385Z,14.28
2023-03-11T19:26:15.194Z,14.06
2023-03-11T19:28:43.448Z,14.15
2023-03-11T19:31:10.106Z,14.33
2023-03-11T19:33:36.998Z,14.42
2023-03-11T19:36:06.343Z,14.39
2023-03-11T19:38:33.928Z,14.44
2023-03-11T19:41:07.024Z,14.46
2023-03-11T19:43:35.562Z,14.54
2023-03-11T19:46:03.714Z,14.39
2023-03-11T19:48:30.596Z,14.54
2023-03-11T19:51:00.915Z,14.65
2023-03-11T19:53:28.581Z,14.65
2023-03-11T19:55:56.640Z,14.65
2023-03-11T19:58:26.800Z,14.64
2023-03-11T20:00:55.485Z,14.59
2023-03-11T20:03:24.460Z,14.66
2023-03-11T20:05:53.121Z,14.70
2023-03-11T20:08:21.523Z,14.68
2023-03-11T20:10:50.844Z,14.53
2023-03-11T20:13:20.510Z,14.69
2023-03-11T20:15:47.784Z,14.65
2023-03-11T20:18:15.594Z,14.78
2023-03-11T20:20:43.307Z,14.84
2023-03-11T20:23:11.787Z,14.77
2023-03-11T20:25:41.505Z,14.47
2023-03-11T20:28:08.818Z,14.42
2023-03-11T20:30:38.046Z,14.12
2023-03-11T20:33:06.446Z,13.86
2023-03-11T20:35:33.664Z,13.69
2023-03-11T20:38:00.390Z,13.64
2023-03-11T20:40:27.250Z,13.57
2023-03-11T20:42:53.856Z,13.87
2023-03-11T20:45:23.462Z,13.80
2023-03-11T20:47:53.360Z,13.79
2023-03-11T20:50:21.108Z,13.95
2023-03-11T20:52:47.862Z,14.08
2023-03-11T20:55:14.576Z,13.96
2023-03-11T20:57:41.482Z,14.00
2023-03-11T21:00:11.625Z,13.91
2023-03-11T21:02:39.401Z,14.03
2023-03-11T21:05:08.510Z,13.88
2023-03-11T21:07:35.571Z,13.56
2023-03-11T21:10:04.407Z,13.40
2023-03-11T21:12:31.457Z,13.49
2023-03-11T21:14:58.237Z,13.75
2023-03-11T21:17:25.118Z,13.69
2023-03-11T21:19:52.195Z,13.70
2023-03-11T21:22:19.081Z,13.43
2023-03-11T21:24:51.298Z,13.66
2023-03-11T21:27:19.228Z,13.46
2023-03-11T21:29:45.883Z,13.35
2023-03-11T21:32:13.238Z,13.51
2023-03-11T21:34:40.182Z,13.62
2023-03-11T21:37:06.922Z,13.78
2023-03-11T21:39:33.505Z,13.88
2023-03-11T21:42:00.266Z,13.49
2023-03-11T21:44:26.952Z,13.69
2023-03-11T21:46:54.200Z,13.56
2023-03-11T21:49:21.023Z,13.72
2023-03-11T21:51:47.688Z,13.98
2023-03-11T21:54:15.390Z,14.07
2023-03-11T21:56:42.293Z,13.94
2023-03-11T21:59:08.961Z,13.96
2023-03-11T22:01:35.788Z,13.90
2023-03-11T22:04:02.559Z,14.12
2023-03-11T22:06:31.159Z,14.09
2023-03-11T22:08:57.825Z,13.92
2023-03-11T22:11:24.947Z,13.93
2023-03-11T22:13:54.445Z,13.25
2023-03-11T22:16:22.064Z,13.47
2023-03-11T22:18:49.391Z,13.30
2023-03-11T22:21:17.218Z,13.29
2023-03-11T22:23:44.957Z,13.50
2023-03-11T22:26:11.888Z,13.70
2023-03-11T22:28:38.504Z,13.33
2023-03-11T22:31:10.162Z,13.34
2023-03-11T22:33:36.779Z,13.79
2023-03-11T22:36:04.778Z,13.87
2023-03-11T22:38:34.129Z,13.72
2023-03-11T22:41:01.038Z,13.97
2023-03-11T22:43:27.672Z,13.74
2023-03-11T22:45:54.369Z,13.75
2023-03-11T22:48:21.250Z,13.91
2023-03-11T22:50:47.923Z,14.00
2023-03-11T22:53:16.127Z,14.03
2023-03-11T22:55:44.303Z,14.12
2023-03-11T22:58:12.100Z,13.73
2023-03-11T23:00:39.317Z,13.87
2023-03-11T23:03:06.047Z,14.04
2023-03-11T23:05:35.962Z,13.68
2023-03-11T23:08:02.571Z,13.22
2023-03-11T23:10:29.163Z,13.55
2023-03-11T23:12:55.775Z,13.56
2023-03-11T23:15:22.424Z,13.65
2023-03-11T23:17:49.208Z,13.31
2023-03-11T23:20:16.752Z,13.06
2023-03-11T23:22:43.746Z,12.48
2023-03-11T23:25:15.838Z,12.93
2023-03-11T23:27:45.686Z,13.31
2023-03-11T23:30:15.617Z,13.62
2023-03-11T23:32:43.229Z,13.16
2023-03-11T23:35:10.673Z,13.17
2023-03-11T23:37:37.698Z,12.83
2023-03-11T23:40:05.092Z,13.04
2023-03-11T23:42:35.760Z,12.70
2023-03-11T23:45:02.957Z,12.63
2023-03-11T23:47:29.662Z,13.00
2023-03-11T23:49:56.429Z,13.08
2023-03-11T23:52:23.878Z,12.93
2023-03-11T23:54:50.744Z,13.07
2023-03-11T23:57:17.664Z,12.96
2023-03-11T23:59:44.394Z,12.72
